Time;durP1;ratioP1;P1;durP2;ratioP2;P2;SDS_P1;SDS_P2;PMS_P1;PMS_P2;Temp;Humidity;BMP_temperature;BMP_pressure;BME280_temperature;BME280_humidity;BME280_pressure;Samples;Min_cycle;Max_cycle;Signal;HPM_P1;HPM_P2
2022/12/21 00:00:28;;;;;;;18.03;15.60;;;;;;;9.50;64.28;98562.25;7105090;27;20287;-85
2022/12/21 00:03:53;;;;;;;21.17;16.23;;;;;;;10.56;63.50;98653.75;7105974;27;20221;-84
2022/12/21 00:07:17;;;;;;;27.43;19.20;;;;;;;10.47;63.42;98649.59;7104997;27;20208;-84
2022/12/21 00:10:41;;;;;;;25.20;17.33;;;;;;;10.40;63.99;98651.47;7106248;27;20231;-84
2022/12/21 00:14:28;;;;;;;24.57;17.77;;;;;;;10.15;64.61;98642.34;7105698;28;20202;-85
2022/12/21 00:17:50;;;;;;;28.10;20.00;;;;;;;10.04;64.85;98654.53;7105073;27;20188;-85
2022/12/21 00:25:40;;;;;;;25.20;18.43;;;;;;;9.75;64.39;98541.78;7077907;27;20261;-88
2022/12/21 00:37:16;;;;;;;19.83;14.43;;;;;;;10.36;65.69;98632.19;7110206;27;20198;-85
2022/12/21 00:41:13;;;;;;;13.40;10.40;;;;;;;11.10;64.58;98635.38;7109593;27;20238;-85
2022/12/21 00:44:35;;;;;;;13.70;10.77;;;;;;;11.14;64.40;98640.13;7110915;27;20227;-85
2022/12/21 00:47:57;;;;;;;14.23;10.97;;;;;;;11.16;64.93;98640.72;7108988;27;20211;-85
2022/12/21 00:51:35;;;;;;;8.00;6.23;;;;;;;12.05;64.46;98642.38;7110922;27;20325;-85
2022/12/21 00:55:53;;;;;;;7.13;6.13;;;;;;;12.16;63.05;98579.50;7110514;27;20725;-85
2022/12/21 00:59:28;;;;;;;8.80;5.70;;;;;;;12.62;62.04;98623.19;7107912;27;20344;-87
2022/12/21 01:03:12;;;;;;;7.17;6.47;;;;;;;12.66;61.43;98619.00;7108046;27;20288;-85
2022/12/21 01:06:42;;;;;;;5.50;4.97;;;;;;;12.36;61.69;98550.47;7102871;27;20276;-85
2022/12/21 01:10:26;;;;;;;6.67;5.80;;;;;;;12.54;61.38;98598.31;7106825;27;20219;-85
2022/12/21 01:14:10;;;;;;;6.60;5.07;;;;;;;12.70;60.81;98625.59;7108236;27;20228;-86
2022/12/21 01:17:32;;;;;;;5.87;5.27;;;;;;;12.60;61.75;98630.72;7079894;27;20203;-85
2022/12/21 01:25:05;;;;;;;7.03;5.00;;;;;;;13.06;60.08;98617.59;7106684;27;20715;-85
2022/12/21 01:28:26;;;;;;;6.37;4.87;;;;;;;13.00;59.77;98610.38;7107603;27;20203;-86
2022/12/21 01:32:25;;;;;;;7.33;5.33;;;;;;;12.87;60.16;98623.97;7112272;27;20266;-86
2022/12/21 01:35:53;;;;;;;6.43;5.57;;;;;;;13.14;59.40;98638.94;7112384;27;20262;-87
2022/12/21 01:39:15;;;;;;;7.13;5.77;;;;;;;13.15;59.33;98648.69;7117319;27;20234;-86
2022/12/21 01:42:38;;;;;;;8.23;6.37;;;;;;;13.19;59.21;98643.66;7106957;27;20714;-86
2022/12/21 01:46:03;;;;;;;12.10;7.67;;;;;;;12.58;59.82;98611.16;7104774;27;20228;-85
2022/12/21 01:49:29;;;;;;;13.00;8.47;;;;;;;12.85;59.77;98627.97;7104789;27;20223;-85
2022/12/21 01:52:57;;;;;;;9.73;8.60;;;;;;;12.17;60.16;98566.84;7107349;27;20207;-86
2022/12/21 01:56:23;;;;;;;8.73;7.50;;;;;;;11.97;61.71;98614.78;7106519;27;20726;-86
2022/12/21 01:59:48;;;;;;;11.50;8.00;;;;;;;11.55;63.43;98626.22;7109014;27;20222;-85
2022/12/21 02:03:12;;;;;;;8.97;8.07;;;;;;;11.85;63.53;98598.47;7114138;27;20217;-84
2022/12/21 02:06:38;;;;;;;9.00;7.70;;;;;;;12.33;62.29;98631.19;7105642;27;20243;-85
2022/12/21 02:10:00;;;;;;;10.90;8.27;;;;;;;11.55;62.31;98512.84;7119104;27;20230;-85
2022/12/21 02:13:23;;;;;;;13.20;7.83;;;;;;;11.98;64.24;98621.88;7129399;27;20218;-86
2022/12/21 02:16:57;;;;;;;9.40;7.40;;;;;;;11.77;63.89;98530.38;7134332;27;20199;-85
2022/12/21 02:20:49;;;;;;;10.77;8.33;;;;;;;11.83;63.88;98586.22;7134444;27;20214;-86
2022/12/21 02:24:50;;;;;;;7.67;6.03;;;;;;;12.69;63.58;98615.03;7135359;27;20593;-88
2022/12/21 02:28:35;;;;;;;7.20;5.73;;;;;;;12.93;63.42;98601.44;7113648;27;20210;-86
2022/12/21 02:32:06;;;;;;;8.20;5.90;;;;;;;12.74;63.99;98602.47;7107038;27;20196;-86
2022/12/21 02:35:37;;;;;;;6.33;5.57;;;;;;;12.37;64.48;98556.66;7105504;27;20187;-86
2022/12/21 02:39:04;;;;;;;5.27;4.60;;;;;;;12.69;64.46;98539.31;7103326;27;20227;-84
2022/12/21 02:46:11;;;;;;;8.93;6.27;;;;;;;13.06;63.87;98608.63;7101042;27;20243;-84
2022/12/21 02:49:39;;;;;;;5.73;4.97;;;;;;;13.01;65.00;98603.91;7107354;27;20230;-83
2022/12/21 02:53:03;;;;;;;8.07;5.87;;;;;;;13.11;64.24;98603.38;7129662;27;20202;-84
2022/12/21 02:56:25;;;;;;;6.50;5.33;;;;;;;12.75;65.03;98550.03;7129078;27;20699;-84
2022/12/21 02:59:49;;;;;;;6.30;4.73;;;;;;;12.91;65.75;98589.19;7129231;27;20722;-84
2022/12/21 03:07:12;;;;;;;8.43;5.20;;;;;;;13.42;64.43;98592.34;7121579;27;20289;-83
2022/12/21 03:10:45;;;;;;;6.30;5.27;;;;;;;13.42;64.15;98590.50;7118019;27;20310;-84
2022/12/21 03:14:09;;;;;;;5.93;4.33;;;;;;;13.43;64.57;98580.47;7104325;27;20672;-83
2022/12/21 03:17:38;;;;;;;8.00;4.93;;;;;;;13.63;63.23;98565.59;7092623;27;20293;-84
2022/12/21 03:21:02;;;;;;;5.80;4.83;;;;;;;13.19;63.56;98529.97;7090363;27;20315;-84
2022/12/21 03:24:29;;;;;;;6.20;5.27;;;;;;;13.80;63.32;98588.28;7087401;27;20252;-84
2022/12/21 03:27:53;;;;;;;5.20;4.70;;;;;;;13.80;63.01;98596.41;7088028;27;20329;-83
2022/12/21 03:31:18;;;;;;;4.87;3.90;;;;;;;13.85;62.32;98588.41;7087419;27;20326;-84
2022/12/21 03:34:42;;;;;;;3.80;3.47;;;;;;;13.97;62.61;98577.59;7086445;27;20361;-84
2022/12/21 03:38:06;;;;;;;9.33;4.10;;;;;;;13.82;63.24;98577.22;7086060;27;20270;-84
2022/12/21 03:41:31;;;;;;;4.10;3.70;;;;;;;13.98;62.98;98590.09;7091366;27;20319;-83
2022/12/21 03:44:57;;;;;;;3.83;3.30;;;;;;;14.19;61.97;98562.47;7089934;27;20227;-84
2022/12/21 03:48:21;;;;;;;5.23;3.80;;;;;;;14.12;62.75;98572.56;7087506;27;20610;-81
2022/12/21 03:51:47;;;;;;;4.53;3.33;;;;;;;14.40;61.58;98556.47;7094715;27;20290;-81
2022/12/21 03:55:12;;;;;;;4.13;3.70;;;;;;;14.52;61.09;98581.72;7085163;27;20274;-81
2022/12/21 03:58:36;;;;;;;3.17;2.87;;;;;;;14.18;61.87;98558.06;7086150;27;20353;-81
2022/12/21 04:02:03;;;;;;;3.40;3.00;;;;;;;14.07;61.80;98548.03;7085968;27;20360;-81
2022/12/21 04:05:27;;;;;;;6.10;3.20;;;;;;;14.25;62.56;98559.66;7084971;28;20231;-79
2022/12/21 04:08:49;;;;;;;3.90;3.50;;;;;;;14.16;62.41;98552.06;7088906;27;20284;-81
2022/12/21 04:16:05;;;;;;;4.13;3.17;;;;;;;14.66;60.84;98550.56;7091171;27;20212;-81
2022/12/21 04:30:24;;;;;;;5.17;3.10;;;;;;;14.45;62.02;98545.75;7091015;27;20288;-81
2022/12/21 04:33:47;;;;;;;3.93;3.53;;;;;;;14.09;63.18;98549.47;7090551;27;20284;-81
2022/12/21 04:40:51;;;;;;;5.70;3.10;;;;;;;14.35;62.46;98531.94;7090510;27;20216;-81
2022/12/21 04:44:13;;;;;;;4.17;3.10;;;;;;;14.45;62.46;98552.00;7091274;27;20679;-82
2022/12/21 04:47:34;;;;;;;4.53;3.07;;;;;;;14.02;62.51;98469.28;7089714;27;20283;-81
2022/12/21 04:51:03;;;;;;;3.03;2.70;;;;;;;14.65;61.59;98549.75;7090609;27;20314;-80
2022/12/21 04:54:24;;;;;;;3.10;2.80;;;;;;;14.66;61.97;98548.69;7090936;27;20275;-79
2022/12/21 04:57:46;;;;;;;3.30;2.93;;;;;;;14.92;61.24;98548.19;7089808;27;20286;-79
2022/12/21 05:01:11;;;;;;;2.70;2.50;;;;;;;14.76;61.37;98521.75;7090303;27;20365;-80
2022/12/21 05:04:32;;;;;;;3.00;2.70;;;;;;;14.59;62.04;98545.28;7090228;27;20356;-81
2022/12/21 05:07:55;;;;;;;3.67;2.80;;;;;;;14.74;62.25;98542.09;7089735;27;20353;-81
2022/12/21 05:11:19;;;;;;;4.73;2.60;;;;;;;14.46;62.79;98547.41;7090099;27;20224;-81
2022/12/21 05:14:40;;;;;;;2.83;2.43;;;;;;;14.61;62.62;98550.47;7089966;27;20195;-81
2022/12/21 05:18:03;;;;;;;4.67;2.60;;;;;;;14.52;62.84;98536.41;7098264;27;20356;-81
2022/12/21 05:21:25;;;;;;;4.10;2.90;;;;;;;14.39;62.83;98525.00;7119551;27;20283;-80
2022/12/21 05:24:47;;;;;;;4.17;2.87;;;;;;;14.28;63.67;98542.91;7118917;27;20234;-81
2022/12/21 05:28:09;;;;;;;3.47;2.63;;;;;;;14.55;62.63;98545.97;7116883;27;20208;-80
2022/12/21 05:31:31;;;;;;;3.10;2.90;;;;;;;14.53;62.81;98551.66;7118266;27;20235;-80
2022/12/21 05:34:52;;;;;;;4.87;2.87;;;;;;;14.62;62.45;98544.00;7118184;27;20215;-81
2022/12/21 05:38:14;;;;;;;3.30;3.00;;;;;;;14.63;62.64;98545.63;7118219;27;20727;-78
2022/12/21 05:41:37;;;;;;;4.20;3.00;;;;;;;14.27;62.93;98533.13;7118472;27;20223;-81
2022/12/21 05:44:58;;;;;;;3.03;2.77;;;;;;;14.78;62.06;98541.38;7118292;27;20266;-81
2022/12/21 05:48:20;;;;;;;3.33;2.70;;;;;;;14.62;62.18;98535.84;7117119;27;20211;-78
2022/12/21 05:51:41;;;;;;;3.87;2.80;;;;;;;14.39;63.09;98549.41;7116528;27;20727;-78
2022/12/21 05:55:03;;;;;;;3.00;2.80;;;;;;;14.44;63.09;98542.22;7116537;27;20333;-78
2022/12/21 05:58:26;;;;;;;4.20;2.67;;;;;;;14.41;62.81;98531.00;7117085;27;20828;-78
2022/12/21 06:01:47;;;;;;;3.33;3.03;;;;;;;14.60;63.10;98546.94;7120874;27;20666;-79
2022/12/21 06:05:09;;;;;;;3.47;2.80;;;;;;;14.68;62.25;98540.31;7117708;27;20321;-79
2022/12/21 06:08:32;;;;;;;2.77;2.57;;;;;;;14.60;62.32;98527.09;7117833;27;20207;-80
2022/12/21 06:11:53;;;;;;;4.10;2.73;;;;;;;14.29;63.47;98538.31;7117978;27;20567;-79
2022/12/21 06:15:16;;;;;;;4.43;2.53;;;;;;;14.45;63.14;98541.13;7116732;27;20260;-80
2022/12/21 06:18:38;;;;;;;4.20;3.40;;;;;;;14.51;62.40;98537.47;7117329;27;20279;-79
2022/12/21 06:21:59;;;;;;;4.80;3.00;;;;;;;14.50;62.69;98543.13;7118226;27;20293;-80
2022/12/21 06:25:21;;;;;;;4.53;2.70;;;;;;;14.64;62.09;98545.38;7116153;27;20679;-78
2022/12/21 06:28:43;;;;;;;3.40;2.90;;;;;;;14.68;62.20;98534.91;7116166;27;20292;-79
2022/12/21 06:32:06;;;;;;;2.87;2.67;;;;;;;14.46;63.04;98544.69;7116934;27;20347;-79
2022/12/21 06:35:27;;;;;;;3.57;2.90;;;;;;;14.51;62.98;98542.09;7119191;27;20286;-79
2022/12/21 06:38:49;;;;;;;3.03;2.73;;;;;;;14.06;64.11;98524.72;7134240;27;20280;-80
2022/12/21 06:42:10;;;;;;;4.37;2.60;;;;;;;14.22;64.04;98541.13;7127843;27;20338;-79
2022/12/21 06:45:32;;;;;;;4.53;2.70;;;;;;;14.12;64.31;98534.63;7116303;27;20709;-79
2022/12/21 06:48:55;;;;;;;4.43;2.90;;;;;;;13.82;65.67;98534.69;7095830;27;20227;-80
2022/12/21 06:52:16;;;;;;;5.13;2.57;;;;;;;13.86;65.69;98535.84;7087260;27;20278;-79
2022/12/21 06:55:38;;;;;;;2.60;2.40;;;;;;;14.24;64.20;98527.34;7086393;27;20199;-79
2022/12/21 06:58:59;;;;;;;5.03;2.80;;;;;;;14.07;64.55;98515.50;7086115;27;20707;-80
2022/12/21 07:02:21;;;;;;;4.67;2.87;;;;;;;13.99;64.58;98507.72;7087614;27;20345;-79
2022/12/21 07:05:44;;;;;;;3.10;2.80;;;;;;;13.90;65.63;98526.22;7087348;27;20709;-79
2022/12/21 07:09:06;;;;;;;3.50;2.70;;;;;;;14.11;64.45;98527.53;7088114;27;20248;-80
2022/12/21 07:12:27;;;;;;;3.80;2.63;;;;;;;14.01;65.38;98535.41;7092326;27;20607;-79
2022/12/21 07:15:49;;;;;;;4.87;2.73;;;;;;;14.01;65.52;98532.72;7117079;27;20283;-79
2022/12/21 07:19:10;;;;;;;3.47;2.83;;;;;;;14.28;64.63;98542.91;7114263;27;20302;-79
2022/12/21 07:22:33;;;;;;;4.40;2.70;;;;;;;14.09;65.63;98546.75;7119792;27;20297;-79
2022/12/21 07:25:56;;;;;;;2.90;2.70;;;;;;;13.82;65.81;98525.72;7116774;27;20231;-80
2022/12/21 07:29:17;;;;;;;2.73;2.53;;;;;;;14.06;65.41;98538.25;7117722;27;20242;-79
2022/12/21 07:32:39;;;;;;;3.77;2.90;;;;;;;14.36;64.39;98558.00;7117142;27;20342;-79
2022/12/21 07:36:02;;;;;;;2.70;2.50;;;;;;;14.54;63.85;98537.03;7117134;27;20271;-79
2022/12/21 07:39:25;;;;;;;4.07;2.73;;;;;;;14.31;64.89;98555.16;7117372;27;20248;-79
2022/12/21 07:42:46;;;;;;;3.63;2.33;;;;;;;14.60;63.89;98556.94;7116966;27;20203;-79
2022/12/21 07:46:08;;;;;;;2.83;2.50;;;;;;;14.31;64.65;98547.88;7116705;27;20739;-79
2022/12/21 07:49:29;;;;;;;2.97;2.40;;;;;;;14.21;65.08;98554.94;7117483;27;20220;-80
2022/12/21 07:52:52;;;;;;;2.43;2.23;;;;;;;14.36;64.68;98550.72;7108588;27;20271;-80
2022/12/21 07:56:16;;;;;;;4.60;2.97;;;;;;;14.18;64.76;98545.34;7087686;27;20232;-79
2022/12/21 07:59:38;;;;;;;2.80;2.60;;;;;;;14.24;65.15;98560.72;7087083;27;20225;-79
2022/12/21 08:02:59;;;;;;;3.37;2.83;;;;;;;14.35;64.71;98569.91;7087834;27;20235;-79
2022/12/21 08:06:21;;;;;;;2.93;2.73;;;;;;;14.32;64.80;98543.25;7087658;27;20295;-79
2022/12/21 08:09:42;;;;;;;3.57;3.00;;;;;;;14.41;64.83;98577.13;7103720;27;20294;-79
2022/12/21 08:13:05;;;;;;;3.43;2.93;;;;;;;14.41;64.63;98569.81;7114820;27;20293;-80
2022/12/21 08:16:27;;;;;;;4.43;3.20;;;;;;;14.41;64.36;98582.53;7116587;27;20200;-79
2022/12/21 08:19:48;;;;;;;3.73;3.30;;;;;;;14.49;64.34;98587.59;7117088;27;20214;-80
2022/12/21 08:23:10;;;;;;;4.37;3.30;;;;;;;14.26;64.95;98583.00;7114243;27;20199;-79
2022/12/21 08:26:31;;;;;;;4.20;3.80;;;;;;;14.22;64.74;98584.50;7115390;27;20227;-79
2022/12/21 08:29:54;;;;;;;4.67;3.47;;;;;;;14.15;65.32;98583.78;7115954;27;20312;-78
2022/12/21 08:33:16;;;;;;;3.97;3.27;;;;;;;14.18;65.47;98585.19;7105819;27;20668;-79
2022/12/21 08:36:38;;;;;;;3.50;3.20;;;;;;;14.01;65.64;98567.94;7115832;27;20291;-79
2022/12/21 08:40:00;;;;;;;3.93;3.40;;;;;;;14.08;65.47;98583.06;7115811;27;20304;-79
2022/12/21 08:43:21;;;;;;;4.17;3.47;;;;;;;14.21;65.06;98592.91;7115314;27;20744;-78
2022/12/21 08:46:44;;;;;;;5.47;3.60;;;;;;;14.38;64.49;98593.84;7108288;27;20310;-78
2022/12/21 08:50:06;;;;;;;4.63;4.07;;;;;;;14.30;64.82;98595.03;7092005;27;20314;-78
2022/12/21 08:53:29;;;;;;;4.07;3.60;;;;;;;14.31;65.42;98587.72;7088887;27;20228;-79
2022/12/21 08:56:50;;;;;;;6.33;3.80;;;;;;;14.23;64.67;98569.09;7092398;27;20662;-80
2022/12/21 09:00:13;;;;;;;8.10;5.70;;;;;;;14.43;64.73;98600.25;7092096;27;20311;-77
2022/12/21 09:03:36;;;;;;;3.20;2.90;;;;;;;14.78;63.12;98600.25;7091267;27;20678;-80
2022/12/21 09:06:57;;;;;;;2.80;2.60;;;;;;;14.72;62.87;98595.75;7091693;27;20228;-77
2022/12/21 09:10:19;;;;;;;4.10;2.87;;;;;;;14.61;62.88;98594.69;7091961;27;20272;-78
2022/12/21 09:13:40;;;;;;;3.90;2.73;;;;;;;14.55;63.34;98600.22;7091514;27;20291;-80
2022/12/21 09:17:02;;;;;;;3.80;3.50;;;;;;;14.34;64.37;98598.13;7091504;27;20200;-79
2022/12/21 09:20:25;;;;;;;3.03;2.70;;;;;;;14.63;63.29;98610.75;7091371;27;20364;-80
2022/12/21 09:23:46;;;;;;;2.83;2.53;;;;;;;14.76;63.21;98603.19;7109416;27;20302;-79
2022/12/21 09:27:11;;;;;;;3.47;2.73;;;;;;;14.69;63.22;98607.09;7118504;27;20366;-79
2022/12/21 09:30:32;;;;;;;3.27;2.50;;;;;;;14.63;63.32;98598.00;7119084;27;20840;-78
2022/12/21 09:33:54;;;;;;;3.83;2.87;;;;;;;14.38;63.46;98578.41;7121527;27;20213;-78
2022/12/21 09:37:17;;;;;;;5.20;3.00;;;;;;;14.46;63.70;98590.81;7121508;27;20198;-78
2022/12/21 09:40:39;;;;;;;4.13;3.00;;;;;;;14.48;63.50;98608.50;7117644;27;20340;-78
2022/12/21 09:44:14;;;;;;;3.23;3.03;;;;;;;14.27;63.94;98586.56;7118387;27;20651;-78
2022/12/21 09:47:40;;;;;;;3.30;3.00;;;;;;;14.36;63.75;98604.13;7117337;27;20382;-78
2022/12/21 09:51:05;;;;;;;2.93;2.70;;;;;;;14.35;63.56;98603.31;7118311;27;20303;-78
2022/12/21 09:54:35;;;;;;;2.80;2.60;;;;;;;14.37;63.51;98601.19;7118556;27;20292;-78
2022/12/21 09:57:58;;;;;;;3.10;2.67;;;;;;;14.61;63.03;98607.44;7117606;27;20208;-78
2022/12/21 10:01:23;;;;;;;4.93;3.23;;;;;;;14.28;63.87;98616.13;7118116;27;20660;-78
2022/12/21 10:04:52;;;;;;;3.47;2.87;;;;;;;14.77;62.39;98594.00;7116724;27;20328;-79
2022/12/21 10:08:25;;;;;;;3.47;3.17;;;;;;;14.50;62.74;98606.38;7117219;27;20254;-78
2022/12/21 10:12:03;;;;;;;4.00;3.07;;;;;;;14.41;63.28;98604.25;7117649;27;20277;-78
2022/12/21 10:15:29;;;;;;;3.93;3.17;;;;;;;14.11;64.30;98598.03;7117928;27;20278;-80
2022/12/21 10:18:59;;;;;;;4.43;3.00;;;;;;;14.27;63.57;98584.66;7117435;27;20219;-78
2022/12/21 10:22:24;;;;;;;3.07;2.70;;;;;;;14.18;63.52;98586.03;7117429;27;20190;-78
2022/12/21 10:25:47;;;;;;;3.23;2.93;;;;;;;14.65;62.74;98595.06;7116934;27;20199;-78
2022/12/21 10:29:13;;;;;;;3.70;3.30;;;;;;;14.94;62.16;98610.38;7117060;27;20319;-78
2022/12/21 10:32:36;;;;;;;4.07;2.60;;;;;;;14.72;62.05;98606.63;7118512;27;20576;-79
2022/12/21 10:36:00;;;;;;;3.43;3.00;;;;;;;14.85;61.88;98612.63;7116158;27;20251;-78
2022/12/21 10:39:22;;;;;;;3.87;3.30;;;;;;;15.10;61.15;98620.53;7116917;27;20694;-78
2022/12/21 10:42:45;;;;;;;4.53;3.20;;;;;;;15.14;60.98;98599.97;7117681;27;20211;-79
2022/12/21 10:46:08;;;;;;;4.23;2.90;;;;;;;15.05;60.95;98602.22;7117205;27;20210;-79
2022/12/21 10:49:36;;;;;;;5.73;3.00;;;;;;;14.89;61.38;98596.69;7117505;27;20321;-79
2022/12/21 10:52:59;;;;;;;3.87;2.80;;;;;;;14.60;62.59;98608.50;7117244;27;20218;-79
2022/12/21 10:56:20;;;;;;;3.80;3.10;;;;;;;15.05;61.67;98606.84;7117515;27;20294;-79
2022/12/21 10:59:42;;;;;;;4.17;3.10;;;;;;;15.24;61.19;98598.31;7117787;27;20347;-80
2022/12/21 11:03:06;;;;;;;3.57;3.23;;;;;;;15.42;60.45;98597.34;7117677;27;20286;-79
2022/12/21 11:06:28;;;;;;;4.67;3.70;;;;;;;15.32;61.23;98599.81;7116868;27;20789;-79
2022/12/21 11:09:55;;;;;;;3.73;3.10;;;;;;;15.06;61.34;98597.63;7117351;27;20301;-79
2022/12/21 11:13:18;;;;;;;5.17;3.90;;;;;;;15.21;61.21;98593.34;7116933;27;20213;-80
2022/12/21 11:16:40;;;;;;;4.20;3.20;;;;;;;15.25;61.00;98586.38;7117304;27;20673;-79
2022/12/21 11:20:07;;;;;;;3.53;3.23;;;;;;;15.16;61.31;98587.00;7116948;27;20227;-79
2022/12/21 11:23:29;;;;;;;4.20;3.13;;;;;;;14.53;62.34;98575.25;7102262;27;20271;-79
2022/12/21 11:26:52;;;;;;;4.20;3.10;;;;;;;14.81;61.85;98548.22;7114076;27;20286;-80
2022/12/21 11:30:19;;;;;;;3.20;2.70;;;;;;;14.79;62.10;98585.59;7116372;27;20286;-79
2022/12/21 11:33:44;;;;;;;3.67;3.17;;;;;;;14.54;62.78;98563.31;7117287;27;20217;-79
2022/12/21 11:37:20;;;;;;;2.83;2.63;;;;;;;14.88;62.81;98587.75;7115238;27;20339;-77
2022/12/21 11:40:54;;;;;;;3.87;3.43;;;;;;;14.92;61.63;98560.94;7114995;27;20722;-77
2022/12/21 11:44:16;;;;;;;4.50;2.60;;;;;;;15.36;61.22;98582.00;7114983;27;20203;-77
2022/12/21 11:47:51;;;;;;;2.47;2.27;;;;;;;15.20;60.98;98578.13;7104090;27;20574;-77
2022/12/21 11:51:18;;;;;;;3.10;2.80;;;;;;;15.72;60.24;98577.03;7102613;27;20275;-78
2022/12/21 11:54:51;;;;;;;2.87;2.30;;;;;;;16.03;58.71;98564.78;7117133;27;20219;-77
2022/12/21 11:58:19;;;;;;;3.67;2.50;;;;;;;16.22;58.15;98572.47;7114745;27;20211;-77
2022/12/21 12:01:47;;;;;;;3.23;2.27;;;;;;;16.74;56.38;98571.16;7114633;27;20327;-77
2022/12/21 12:05:17;;;;;;;2.60;2.37;;;;;;;16.99;55.79;98568.81;7114327;27;20222;-74
2022/12/21 12:08:51;;;;;;;3.63;2.37;;;;;;;16.53;57.07;98563.78;7113590;27;20738;-76
2022/12/21 12:12:20;;;;;;;2.90;2.60;;;;;;;16.10;58.26;98558.13;7114422;27;20262;-76
2022/12/21 12:15:46;;;;;;;2.47;2.27;;;;;;;16.32;57.27;98540.00;7114176;27;20769;-76
2022/12/21 12:19:15;;;;;;;3.57;2.50;;;;;;;16.11;58.47;98538.00;7114404;27;20714;-76
2022/12/21 12:22:45;;;;;;;2.40;2.20;;;;;;;16.58;57.51;98539.34;7114013;27;20190;-76
2022/12/21 12:26:13;;;;;;;2.93;2.40;;;;;;;16.70;56.46;98550.16;7114008;27;20239;-75
2022/12/21 12:29:56;;;;;;;3.47;2.40;;;;;;;16.59;57.04;98546.47;7117385;27;20316;-76
2022/12/21 12:33:27;;;;;;;3.40;2.63;;;;;;;16.72;57.12;98540.66;7119979;27;20282;-75
2022/12/21 12:36:57;;;;;;;2.77;2.53;;;;;;;17.31;55.23;98526.19;7118937;27;20349;-76
2022/12/21 12:40:26;;;;;;;2.57;2.37;;;;;;;16.47;57.63;98545.72;7118976;27;20310;-78
2022/12/21 12:43:55;;;;;;;2.50;2.23;;;;;;;16.80;56.34;98540.22;7119583;27;20227;-76
2022/12/21 12:47:26;;;;;;;2.20;2.10;;;;;;;16.87;56.13;98524.50;7118540;27;20228;-76
2022/12/21 12:50:52;;;;;;;3.60;3.30;;;;;;;16.99;56.04;98522.50;7120076;27;20223;-76
2022/12/21 12:54:20;;;;;;;3.43;2.70;;;;;;;16.68;56.38;98503.31;7119130;27;20219;-77
2022/12/21 12:57:47;;;;;;;27.73;17.17;;;;;;;16.89;56.24;98536.00;7117701;27;20316;-76
2022/12/21 13:01:13;;;;;;;3.77;3.07;;;;;;;16.89;56.14;98510.66;7119497;27;20226;-76
2022/12/21 13:04:52;;;;;;;3.57;2.90;;;;;;;16.96;56.41;98523.03;7119566;27;20233;-76
2022/12/21 13:08:26;;;;;;;3.10;2.43;;;;;;;16.95;55.95;98517.81;7117228;27;20260;-76
2022/12/21 13:11:54;;;;;;;2.70;2.30;;;;;;;16.82;56.28;98512.75;7119220;27;20368;-75
2022/12/21 13:15:20;;;;;;;2.40;2.20;;;;;;;16.84;56.63;98524.19;7118667;27;20219;-76
2022/12/21 13:18:45;;;;;;;2.53;2.33;;;;;;;16.80;56.02;98521.16;7118785;27;20248;-76
2022/12/21 13:22:11;;;;;;;4.40;3.70;;;;;;;16.73;56.27;98534.13;7118659;27;20239;-76
2022/12/21 13:25:38;;;;;;;4.07;3.20;;;;;;;16.51;57.02;98521.56;7118018;27;20212;-75
2022/12/21 13:29:02;;;;;;;2.33;2.00;;;;;;;16.29;57.65;98532.31;7117824;27;20231;-76
2022/12/21 13:32:27;;;;;;;1.90;1.80;;;;;;;16.63;56.24;98525.00;7118743;27;20290;-76
2022/12/21 13:35:53;;;;;;;2.10;2.00;;;;;;;16.34;56.74;98523.44;7117712;27;20274;-76
2022/12/21 13:39:20;;;;;;;1.77;1.67;;;;;;;16.08;57.69;98515.94;7117858;27;20272;-76
2022/12/21 13:42:46;;;;;;;2.10;2.00;;;;;;;16.42;56.48;98529.31;7118526;27;20327;-76
2022/12/21 13:46:09;;;;;;;4.87;2.13;;;;;;;16.44;56.60;98520.88;7118814;27;20236;-76
2022/12/21 13:49:46;;;;;;;2.03;1.93;;;;;;;16.52;56.18;98528.66;7113034;27;20698;-76
2022/12/21 13:53:11;;;;;;;2.03;1.80;;;;;;;16.45;56.01;98517.13;7118581;27;20650;-75
2022/12/21 13:56:43;;;;;;;3.40;2.10;;;;;;;16.49;56.19;98510.91;7117006;27;20210;-76
2022/12/21 14:00:15;;;;;;;2.40;2.20;;;;;;;16.42;56.08;98507.56;7118169;27;20223;-76
2022/12/21 14:03:41;;;;;;;2.50;1.97;;;;;;;16.44;55.69;98518.16;7104488;27;20660;-76
2022/12/21 14:07:35;;;;;;;2.20;2.10;;;;;;;16.53;56.14;98509.34;7086826;27;20254;-76
2022/12/21 14:11:07;;;;;;;2.70;2.50;;;;;;;16.63;55.59;98487.69;7066663;27;20296;-76
2022/12/21 14:14:46;;;;;;;4.47;3.00;;;;;;;16.68;55.30;98495.94;7088463;27;20208;-76
2022/12/21 14:18:12;;;;;;;2.23;2.00;;;;;;;16.41;55.84;98480.59;7088408;27;20204;-76
2022/12/21 14:21:34;;;;;;;2.27;1.90;;;;;;;16.61;55.52;98499.91;7101780;27;20220;-76
2022/12/21 14:24:59;;;;;;;3.53;3.23;;;;;;;16.65;55.39;98496.47;7116128;27;20344;-76
2022/12/21 14:28:23;;;;;;;2.37;2.10;;;;;;;16.55;55.32;98477.25;7116207;27;20224;-76
2022/12/21 14:31:50;;;;;;;4.87;2.60;;;;;;;16.73;55.48;98497.91;7116961;27;20216;-76
2022/12/21 14:35:25;;;;;;;3.10;2.53;;;;;;;16.61;55.61;98494.47;7116186;27;20657;-76
2022/12/21 14:39:33;;;;;;;3.13;2.77;;;;;;;16.58;56.07;98495.00;7116997;27;20352;-75
2022/12/21 14:43:02;;;;;;;5.40;3.40;;;;;;;16.41;56.82;98496.91;7116863;27;20560;-78
2022/12/21 14:46:26;;;;;;;5.03;3.20;;;;;;;16.39;56.81;98502.59;7116694;27;20204;-78
2022/12/21 14:49:49;;;;;;;3.07;2.67;;;;;;;16.29;56.59;98490.72;7116488;27;20253;-78
2022/12/21 14:53:12;;;;;;;2.50;2.30;;;;;;;16.44;56.24;98496.41;7116226;27;20205;-78
2022/12/21 14:56:35;;;;;;;3.90;3.03;;;;;;;16.63;55.49;98495.06;7115618;27;20289;-78
2022/12/21 15:00:19;;;;;;;3.30;3.00;;;;;;;16.66;55.35;98487.22;7116896;27;20361;-77
2022/12/21 15:03:42;;;;;;;30.13;21.07;;;;;;;16.63;55.67;98498.59;7116362;27;20206;-78
2022/12/21 15:07:16;;;;;;;8.30;4.50;;;;;;;16.19;56.64;98494.09;7101194;27;20295;-78
2022/12/21 15:10:53;;;;;;;5.40;4.50;;;;;;;15.98;57.73;98504.91;7116681;27;20222;-79
2022/12/21 15:14:25;;;;;;;4.40;3.30;;;;;;;15.58;58.51;98477.81;7087257;27;20708;-77
2022/12/21 15:17:46;;;;;;;4.33;3.20;;;;;;;15.38;59.18;98493.75;7088433;27;20688;-76
2022/12/21 15:21:32;;;;;;;3.40;2.77;;;;;;;15.48;58.13;98504.00;7115172;27;20227;-76
2022/12/21 15:24:58;;;;;;;2.63;2.43;;;;;;;15.44;57.60;98503.66;7111300;27;20730;-77
2022/12/21 15:28:24;;;;;;;3.27;2.77;;;;;;;15.62;57.87;98506.16;7098754;27;20218;-76
2022/12/21 15:31:48;;;;;;;2.80;2.60;;;;;;;15.81;56.81;98506.78;7116750;27;20219;-76
2022/12/21 15:35:15;;;;;;;2.90;2.60;;;;;;;16.14;55.79;98507.63;7115049;27;20207;-76
2022/12/21 15:38:38;;;;;;;3.77;2.87;;;;;;;15.94;55.37;98463.78;7115519;27;20748;-76
2022/12/21 15:42:05;;;;;;;5.50;3.50;;;;;;;16.07;55.74;98506.13;7114799;27;20256;-77
2022/12/21 15:45:38;;;;;;;5.27;3.63;;;;;;;15.78;56.66;98507.25;7113704;27;20208;-77
2022/12/21 15:49:04;;;;;;;4.10;3.70;;;;;;;15.81;56.55;98513.03;7107729;27;20298;-77
2022/12/21 15:52:28;;;;;;;3.20;2.90;;;;;;;15.46;57.79;98514.28;7100322;27;20571;-79
2022/12/21 15:55:50;;;;;;;3.10;2.80;;;;;;;15.36;57.62;98514.94;7083814;27;20215;-77
2022/12/21 15:59:15;;;;;;;3.97;3.23;;;;;;;15.93;56.21;98511.06;7084167;27;20312;-77
2022/12/21 16:02:36;;;;;;;4.37;3.97;;;;;;;15.51;57.47;98498.09;7085091;27;20252;-80
2022/12/21 16:06:02;;;;;;;8.13;6.17;;;;;;;15.38;57.86;98511.94;7084664;27;20673;-76
2022/12/21 16:09:25;;;;;;;8.83;7.93;;;;;;;15.46;57.70;98522.44;7084077;27;20295;-77
2022/12/21 16:12:46;;;;;;;6.80;6.00;;;;;;;15.22;58.67;98521.66;7084794;27;20358;-76
2022/12/21 16:16:16;;;;;;;7.27;4.97;;;;;;;15.70;57.28;98513.91;7100317;27;20295;-77
2022/12/21 16:19:50;;;;;;;5.63;4.37;;;;;;;15.35;58.20;98515.16;7119529;27;20218;-77
2022/12/21 16:23:14;;;;;;;4.10;3.30;;;;;;;15.06;58.36;98527.03;7105893;27;20201;-77
2022/12/21 16:26:36;;;;;;;3.70;3.30;;;;;;;15.37;57.30;98516.56;7083648;27;20203;-77
2022/12/21 16:29:59;;;;;;;7.53;6.47;;;;;;;15.41;57.21;98525.91;7084147;27;20231;-77
2022/12/21 16:33:22;;;;;;;5.00;3.97;;;;;;;15.39;57.34;98543.50;7084171;27;20204;-77
2022/12/21 16:36:44;;;;;;;5.43;4.03;;;;;;;15.25;57.50;98544.78;7084272;27;20771;-77
2022/12/21 16:40:08;;;;;;;6.43;4.30;;;;;;;15.36;57.59;98549.41;7084475;27;20225;-77
2022/12/21 16:43:30;;;;;;;4.87;3.83;;;;;;;15.45;57.13;98531.66;7101903;27;20604;-77
2022/12/21 16:47:19;;;;;;;4.57;3.93;;;;;;;15.10;57.12;98536.34;7112606;27;20208;-78
2022/12/21 16:50:47;;;;;;;6.23;5.50;;;;;;;14.80;57.89;98544.66;7113057;27;20230;-78